createdAt,value
2018-07-10T00:00:01.957Z,3.25
2018-07-10T00:03:15.433Z,2.60
2018-07-10T00:08:05.087Z,3.00
2018-07-10T00:10:48.752Z,4.95
2018-07-10T00:13:17.935Z,3.22
2018-07-10T00:15:47.140Z,5.00
2018-07-10T00:18:16.401Z,2.90
2018-07-10T00:20:45.247Z,2.70
2018-07-10T00:23:14.450Z,3.85
2018-07-10T00:25:43.980Z,3.35
2018-07-10T00:28:13.152Z,4.37
2018-07-10T00:30:42.324Z,3.40
2018-07-10T00:33:11.972Z,3.15
2018-07-10T00:35:42.326Z,4.22
2018-07-10T00:38:28.536Z,4.17
2018-07-10T00:40:57.767Z,4.00
2018-07-10T00:43:27.008Z,3.47
2018-07-10T00:45:56.246Z,3.47
2018-07-10T00:48:25.712Z,3.10
2018-07-10T00:50:54.856Z,4.08
2018-07-10T00:53:24.047Z,5.72
2018-07-10T00:55:55.226Z,4.85
2018-07-10T00:58:24.965Z,3.58
2018-07-10T01:00:54.717Z,3.95
2018-07-10T01:03:24.474Z,5.47
2018-07-10T01:05:53.644Z,5.08
2018-07-10T01:08:22.740Z,3.62
2018-07-10T01:10:57.133Z,3.90
2018-07-10T01:13:26.284Z,3.47
2018-07-10T01:15:56.462Z,3.47
2018-07-10T01:18:27.732Z,6.75
2018-07-10T01:20:57.516Z,3.72
2018-07-10T01:23:29.828Z,3.50
2018-07-10T01:26:00.007Z,4.03
2018-07-10T01:28:30.371Z,4.67
2018-07-10T01:30:59.737Z,4.90
2018-07-10T01:33:29.932Z,4.37
2018-07-10T01:36:02.800Z,3.90
2018-07-10T01:38:33.036Z,3.80
2018-07-10T01:41:02.612Z,3.70
2018-07-10T01:43:32.024Z,4.28
2018-07-10T01:46:01.720Z,3.58
2018-07-10T01:48:30.886Z,5.62
2018-07-10T01:51:00.177Z,3.37
2018-07-10T01:53:29.532Z,3.92
2018-07-10T01:55:58.831Z,3.65
2018-07-10T01:58:28.136Z,4.00
2018-07-10T02:00:57.620Z,4.35
2018-07-10T02:03:27.652Z,3.55
2018-07-10T02:05:56.738Z,3.60
2018-07-10T02:08:26.239Z,4.28
2018-07-10T02:10:56.015Z,5.42
2018-07-10T02:13:25.236Z,3.75
2018-07-10T02:15:54.463Z,4.03
2018-07-10T02:18:23.628Z,3.55
2018-07-10T02:20:57.712Z,5.80
2018-07-10T02:23:33.948Z,4.05
2018-07-10T02:26:04.074Z,4.12
2018-07-10T02:28:33.328Z,4.17
2018-07-10T02:31:03.052Z,3.90
2018-07-10T02:33:33.396Z,4.33
2018-07-10T02:36:02.553Z,4.78
2018-07-10T02:38:31.780Z,3.58
2018-07-10T02:41:00.997Z,5.62
2018-07-10T02:43:30.124Z,3.83
2018-07-10T02:45:59.884Z,4.05
2018-07-10T02:48:32.633Z,3.70
2018-07-10T02:51:04.583Z,3.65
2018-07-10T02:53:35.281Z,6.70
2018-07-10T02:56:04.512Z,3.98
2018-07-10T02:58:35.175Z,4.22
2018-07-10T03:01:05.781Z,3.65
2018-07-10T03:03:37.644Z,3.80
2018-07-10T03:06:06.992Z,3.90
2018-07-10T03:08:36.787Z,3.92
2018-07-10T03:11:06.293Z,3.40
2018-07-10T03:13:36.424Z,4.90
2018-07-10T03:16:05.693Z,4.33
2018-07-10T03:18:35.189Z,4.03
2018-07-10T03:21:04.416Z,5.08
2018-07-10T03:23:33.584Z,5.05
2018-07-10T03:26:03.208Z,4.53
2018-07-10T03:28:32.579Z,3.77
2018-07-10T03:31:01.978Z,5.45
2018-07-10T03:33:32.451Z,4.45
2018-07-10T03:36:01.412Z,4.55
2018-07-10T03:38:30.598Z,6.55
2018-07-10T03:40:59.708Z,3.55
2018-07-10T03:43:28.911Z,4.05
2018-07-10T03:45:57.999Z,5.00
2018-07-10T03:48:27.979Z,3.95
2018-07-10T03:50:57.216Z,4.20
2018-07-10T03:53:26.719Z,4.08
2018-07-10T03:55:56.848Z,4.80
2018-07-10T03:58:26.333Z,5.03
2018-07-10T04:00:55.542Z,5.22
2018-07-10T04:03:31.124Z,4.20
2018-07-10T04:06:00.949Z,5.00
2018-07-10T04:08:31.170Z,3.95
2018-07-10T04:11:01.842Z,4.58
2018-07-10T04:13:30.834Z,4.10
2018-07-10T04:16:03.110Z,4.72
2018-07-10T04:18:34.867Z,5.30
2018-07-10T04:21:28.209Z,4.22
2018-07-10T04:24:15.200Z,4.58
2018-07-10T04:26:56.273Z,5.00
2018-07-10T04:29:32.836Z,4.05
2018-07-10T04:32:02.066Z,4.60
2018-07-10T04:34:34.185Z,3.47
2018-07-10T04:37:11.692Z,4.87
2018-07-10T04:39:42.740Z,4.95
2018-07-10T04:42:38.013Z,3.60
2018-07-10T04:45:13.093Z,3.52
2018-07-10T04:47:53.617Z,6.03
2018-07-10T04:51:48.446Z,5.03
2018-07-10T04:54:31.117Z,4.65
2018-07-10T04:57:06.884Z,4.40
2018-07-10T04:59:36.888Z,4.78
2018-07-10T05:02:07.133Z,3.83
2018-07-10T05:04:36.432Z,4.33
2018-07-10T05:07:10.492Z,5.33
2018-07-10T05:09:41.594Z,4.55
2018-07-10T05:12:10.806Z,4.22
2018-07-10T05:14:44.951Z,4.53
2018-07-10T05:17:16.286Z,4.78
2018-07-10T05:19:46.089Z,4.05
2018-07-10T05:22:15.808Z,4.37
2018-07-10T05:24:44.996Z,4.55
2018-07-10T05:27:16.444Z,4.65
2018-07-10T05:29:46.324Z,6.17
2018-07-10T05:32:16.324Z,7.90
2018-07-10T05:34:45.832Z,5.55
2018-07-10T05:37:30.036Z,8.70
2018-07-10T05:40:03.342Z,7.40
2018-07-10T05:42:32.472Z,5.70
2018-07-10T05:45:02.593Z,7.15
2018-07-10T05:47:33.136Z,6.83
2018-07-10T05:50:11.349Z,7.30
2018-07-10T05:52:42.400Z,6.90
2018-07-10T05:55:13.237Z,8.40
2018-07-10T05:57:43.376Z,5.20
2018-07-10T06:00:12.528Z,6.47
2018-07-10T06:02:41.744Z,4.70
2018-07-10T06:05:11.377Z,5.20
2018-07-10T06:07:41.716Z,4.35
2018-07-10T06:10:10.905Z,3.55
2018-07-10T06:12:40.075Z,5.40
2018-07-10T06:15:09.297Z,6.10
2018-07-10T06:17:38.396Z,4.92
2018-07-10T06:20:07.816Z,3.98
2018-07-10T06:22:38.128Z,4.72
2018-07-10T06:25:08.472Z,3.80
2018-07-10T06:28:51.236Z,3.80
2018-07-10T06:31:23.948Z,3.87
2018-07-10T06:34:08.224Z,6.72
2018-07-10T06:36:49.020Z,4.72
2018-07-10T06:39:18.604Z,4.20
2018-07-10T06:41:57.861Z,3.98
2018-07-10T06:44:28.191Z,5.08
2018-07-10T06:47:00.788Z,3.92
2018-07-10T06:49:36.536Z,3.65
2018-07-10T06:52:11.047Z,6.10
2018-07-10T06:55:20.856Z,3.60
2018-07-10T06:57:53.414Z,3.95
2018-07-10T07:00:22.556Z,5.55
2018-07-10T07:02:51.703Z,5.08
2018-07-10T07:05:21.208Z,5.25
2018-07-10T07:07:50.543Z,6.10
2018-07-10T07:10:20.591Z,5.65
2018-07-10T07:12:50.469Z,5.17
2018-07-10T07:15:20.585Z,4.85
2018-07-10T07:17:51.268Z,4.30
2018-07-10T07:20:21.772Z,5.92
2018-07-10T07:22:51.540Z,7.47
2018-07-10T07:25:21.019Z,4.75
2018-07-10T07:27:50.196Z,6.03
2018-07-10T07:30:20.400Z,6.20
2018-07-10T07:32:50.179Z,5.80
2018-07-10T07:35:20.389Z,7.33
2018-07-10T07:37:49.597Z,4.05
2018-07-10T07:40:19.888Z,5.30
2018-07-10T07:42:49.086Z,8.15
2018-07-10T07:45:18.280Z,3.87
2018-07-10T07:47:47.785Z,4.12
2018-07-10T07:50:17.496Z,4.50
2018-07-10T07:52:47.567Z,4.08
2018-07-10T07:55:16.841Z,4.28
2018-07-10T07:57:46.132Z,3.85
2018-07-10T08:00:16.938Z,4.30
2018-07-10T08:02:46.125Z,4.20
2018-07-10T08:05:15.295Z,3.25
2018-07-10T08:07:45.703Z,4.00
2018-07-10T08:10:15.530Z,4.17
2018-07-10T08:12:46.041Z,2.70
2018-07-10T08:15:15.345Z,3.40
2018-07-10T08:17:44.614Z,2.40
2018-07-10T08:20:14.768Z,4.08
2018-07-10T08:22:44.140Z,2.98
2018-07-10T08:25:13.570Z,2.75
2018-07-10T08:27:44.060Z,3.17
2018-07-10T08:30:13.497Z,3.05
2018-07-10T08:32:42.681Z,2.95
2018-07-10T08:35:13.008Z,4.62
2018-07-10T08:37:42.699Z,3.05
2018-07-10T08:40:11.889Z,3.83
2018-07-10T08:42:42.196Z,2.92
2018-07-10T08:45:13.798Z,2.83
2018-07-10T08:47:44.128Z,3.72
2018-07-10T08:50:13.840Z,2.77
2018-07-10T08:52:43.542Z,3.67
2018-07-10T08:55:13.257Z,2.87
2018-07-10T08:57:42.460Z,3.85
2018-07-10T09:00:12.856Z,2.40
2018-07-10T09:02:42.653Z,2.60
2018-07-10T09:05:11.896Z,3.67
2018-07-10T09:07:41.668Z,4.78
2018-07-10T09:10:11.888Z,4.78
2018-07-10T09:12:42.927Z,3.15
2018-07-10T09:15:14.170Z,3.30
2018-07-10T09:17:43.821Z,2.55
2018-07-10T09:20:27.149Z,2.83
2018-07-10T09:22:56.346Z,2.80
2018-07-10T09:25:25.406Z,3.02
2018-07-10T09:27:57.313Z,3.40
2018-07-10T09:30:27.521Z,2.52
2018-07-10T09:32:58.410Z,2.42
2018-07-10T09:35:28.271Z,3.10
2018-07-10T09:37:58.364Z,4.37
2018-07-10T09:40:27.700Z,2.35
2018-07-10T09:43:03.453Z,2.92
2018-07-10T09:45:37.864Z,3.10
2018-07-10T09:48:08.584Z,2.92
2018-07-10T09:50:38.984Z,2.80
2018-07-10T09:53:10.097Z,3.05
2018-07-10T09:55:39.397Z,4.28
2018-07-10T09:58:09.583Z,5.08
2018-07-10T10:00:44.781Z,3.27
2018-07-10T10:03:16.188Z,3.27
2018-07-10T10:05:46.885Z,2.17
2018-07-10T10:08:16.742Z,2.20
2018-07-10T10:10:46.069Z,2.60
2018-07-10T10:13:17.028Z,2.98
2018-07-10T10:15:46.312Z,1.80
2018-07-10T10:18:16.066Z,2.67
2018-07-10T10:20:46.246Z,2.20
2018-07-10T10:23:15.574Z,1.95
2018-07-10T10:25:50.399Z,3.00
2018-07-10T10:28:24.502Z,3.52
2018-07-10T10:30:54.134Z,2.00
2018-07-10T10:33:23.401Z,2.22
2018-07-10T10:35:52.695Z,2.90
2018-07-10T10:38:24.256Z,2.30
2018-07-10T10:40:53.961Z,3.05
2018-07-10T10:43:25.056Z,1.80
2018-07-10T10:45:54.208Z,3.35
2018-07-10T10:48:23.392Z,4.62
2018-07-10T10:50:53.157Z,2.70
2018-07-10T10:53:22.785Z,2.17
2018-07-10T10:55:51.962Z,3.40
2018-07-10T10:58:22.530Z,3.10
2018-07-10T11:00:51.764Z,1.40
2018-07-10T11:03:22.117Z,1.87
2018-07-10T11:05:52.255Z,3.98
2018-07-10T11:08:22.865Z,2.72
2018-07-10T11:10:52.385Z,1.60
2018-07-10T11:13:21.907Z,2.40
2018-07-10T11:15:52.145Z,4.03
2018-07-10T11:18:34.785Z,3.35
2018-07-10T11:22:13.800Z,2.92
2018-07-10T11:24:58.608Z,3.08
2018-07-10T11:28:14.830Z,4.55
2018-07-10T11:30:44.223Z,2.60
2018-07-10T11:33:14.075Z,3.60
2018-07-10T11:35:43.286Z,2.12
2018-07-10T11:38:14.318Z,2.12
2018-07-10T11:40:45.589Z,2.00
2018-07-10T11:43:15.229Z,2.45
2018-07-10T11:45:44.610Z,2.12
2018-07-10T11:48:13.885Z,1.85
2018-07-10T11:50:43.121Z,2.90
2018-07-10T11:53:12.676Z,2.58
2018-07-10T11:55:42.079Z,2.47
2018-07-10T11:58:12.672Z,1.95
2018-07-10T12:00:42.027Z,4.00
2018-07-10T12:03:11.843Z,1.85
2018-07-10T12:05:42.333Z,1.72
2018-07-10T12:08:11.810Z,2.00
2018-07-10T12:10:41.728Z,3.15
2018-07-10T12:13:11.596Z,2.65
2018-07-10T12:15:41.023Z,2.15
2018-07-10T12:18:13.824Z,2.20
2018-07-10T12:20:44.534Z,2.65
2018-07-10T12:23:13.813Z,2.60
2018-07-10T12:25:45.934Z,2.95
2018-07-10T12:28:15.750Z,2.70
2018-07-10T12:30:45.184Z,2.22
2018-07-10T12:33:14.337Z,2.95
2018-07-10T12:35:43.497Z,3.70
2018-07-10T12:38:12.682Z,2.70
2018-07-10T12:40:42.436Z,3.08
2018-07-10T12:43:12.444Z,3.17
2018-07-10T12:45:41.495Z,3.08
2018-07-10T12:48:10.811Z,2.90
2018-07-10T12:50:39.936Z,4.15
2018-07-10T12:53:08.810Z,3.67
2018-07-10T12:55:38.956Z,3.12
2018-07-10T12:58:08.285Z,3.45
2018-07-10T13:00:39.058Z,3.08
2018-07-10T13:03:10.676Z,3.35
2018-07-10T13:05:47.816Z,2.45
2018-07-10T13:08:18.342Z,3.08
2018-07-10T13:10:47.504Z,3.65
2018-07-10T13:13:17.126Z,2.12
2018-07-10T13:15:46.980Z,2.08
2018-07-10T13:18:21.572Z,1.87
2018-07-10T13:20:53.161Z,2.37
2018-07-10T13:23:22.508Z,2.60
2018-07-10T13:25:52.775Z,4.30
2018-07-10T13:28:22.161Z,2.90
2018-07-10T13:30:51.896Z,2.98
2018-07-10T13:33:21.176Z,4.03
2018-07-10T13:35:50.662Z,2.80
2018-07-10T13:38:21.793Z,2.65
2018-07-10T13:40:53.902Z,2.10
2018-07-10T13:43:23.106Z,3.10
2018-07-10T13:45:53.165Z,2.92
2018-07-10T13:48:22.802Z,2.15
2018-07-10T13:50:53.053Z,3.15
2018-07-10T13:53:22.253Z,4.05
2018-07-10T13:55:51.396Z,2.10
2018-07-10T13:58:32.324Z,1.75
2018-07-10T14:01:07.091Z,1.62
2018-07-10T14:03:37.344Z,2.58
2018-07-10T14:06:07.178Z,3.15
2018-07-10T14:08:38.021Z,2.27
2018-07-10T14:11:08.650Z,2.12
2018-07-10T14:13:37.916Z,4.10
2018-07-10T14:16:07.154Z,2.22
2018-07-10T14:18:36.351Z,2.83
2018-07-10T14:21:07.965Z,2.05
2018-07-10T14:23:38.244Z,2.45
2018-07-10T14:26:07.480Z,3.80
2018-07-10T14:28:36.816Z,4.15
2018-07-10T14:31:06.817Z,3.47
2018-07-10T14:33:36.741Z,1.55
2018-07-10T14:36:06.056Z,1.95
2018-07-10T14:38:35.332Z,2.58
2018-07-10T14:41:07.688Z,2.80
2018-07-10T14:43:43.858Z,4.60
2018-07-10T14:46:21.089Z,2.58
2018-07-10T14:48:55.292Z,3.70
2018-07-10T14:51:59.576Z,1.75
2018-07-10T14:54:29.825Z,2.15
2018-07-10T14:57:00.059Z,1.57
2018-07-10T14:59:30.555Z,1.70
2018-07-10T15:01:59.780Z,4.12
2018-07-10T15:04:30.821Z,3.12
2018-07-10T15:07:00.009Z,3.90
2018-07-10T15:09:32.993Z,1.60
2018-07-10T15:12:03.479Z,2.90
2018-07-10T15:14:32.606Z,1.72
2018-07-10T15:17:07.745Z,1.95
2018-07-10T15:19:37.223Z,2.12
2018-07-10T15:22:06.420Z,3.60
2018-07-10T15:24:35.674Z,1.60
2018-07-10T15:27:05.300Z,2.00
2018-07-10T15:29:34.444Z,3.08
2018-07-10T15:32:04.082Z,5.45
2018-07-10T15:34:33.191Z,2.33
2018-07-10T15:37:02.757Z,2.58
2018-07-10T15:39:32.381Z,3.00
2018-07-10T15:42:01.564Z,3.30
2018-07-10T15:44:30.917Z,2.87
2018-07-10T15:47:00.403Z,2.52
2018-07-10T15:49:29.291Z,3.10
2018-07-10T15:51:58.616Z,3.12
2018-07-10T15:54:27.797Z,2.00
2018-07-10T15:56:57.004Z,3.05
2018-07-10T15:59:25.994Z,1.95
2018-07-10T16:01:55.655Z,3.08
2018-07-10T16:04:24.857Z,2.33
2018-07-10T16:06:55.107Z,2.17
2018-07-10T16:09:24.435Z,5.50
2018-07-10T16:12:05.808Z,3.95
2018-07-10T16:14:37.860Z,2.27
2018-07-10T16:17:29.091Z,4.25
2018-07-10T16:20:05.096Z,2.37
2018-07-10T16:22:37.572Z,2.02
2018-07-10T16:25:42.328Z,2.65
2018-07-10T16:28:14.452Z,1.87
2018-07-10T16:30:45.117Z,2.98
2018-07-10T16:33:19.756Z,1.52
2018-07-10T16:35:49.250Z,2.72
2018-07-10T16:38:18.433Z,1.17
2018-07-10T16:40:50.316Z,1.45
2018-07-10T16:43:26.172Z,2.45
2018-07-10T16:45:56.448Z,1.72
2018-07-10T16:48:33.528Z,1.75
2018-07-10T16:51:12.716Z,2.50
2018-07-10T16:53:42.745Z,1.98
2018-07-10T16:56:11.884Z,4.15
2018-07-10T16:58:42.300Z,2.35
2018-07-10T17:01:12.024Z,0.98
2018-07-10T17:03:41.611Z,3.60
2018-07-10T17:06:11.074Z,2.20
2018-07-10T17:08:40.240Z,2.40
2018-07-10T17:11:09.428Z,3.33
2018-07-10T17:13:39.178Z,1.22
2018-07-10T17:16:08.401Z,3.33
2018-07-10T17:18:37.285Z,1.60
2018-07-10T17:21:06.868Z,2.80
2018-07-10T17:23:36.287Z,1.60
2018-07-10T17:26:06.695Z,2.05
2018-07-10T17:28:37.225Z,1.32
2018-07-10T17:31:06.458Z,1.47
2018-07-10T17:33:35.700Z,2.50
2018-07-10T17:36:05.196Z,2.50
2018-07-10T17:38:35.092Z,2.02
2018-07-10T17:41:06.387Z,2.92
2018-07-10T17:43:35.668Z,3.83
2018-07-10T17:46:04.880Z,1.77
2018-07-10T17:48:34.120Z,2.62
2018-07-10T17:51:03.388Z,1.55
2018-07-10T17:53:32.692Z,1.80
2018-07-10T17:56:02.316Z,2.87
2018-07-10T17:58:31.957Z,1.57
2018-07-10T18:01:01.211Z,1.70
2018-07-10T18:03:30.413Z,4.17
2018-07-10T18:05:59.552Z,2.72
2018-07-10T18:08:28.880Z,2.08
2018-07-10T18:10:58.346Z,2.37
2018-07-10T18:13:27.604Z,4.40
2018-07-10T18:15:57.017Z,3.85
2018-07-10T18:18:26.382Z,3.87
2018-07-10T18:20:56.121Z,1.98
2018-07-10T18:23:25.212Z,2.47
2018-07-10T18:25:54.413Z,3.65
2018-07-10T18:28:23.861Z,3.83
2018-07-10T18:30:53.196Z,4.05
2018-07-10T18:33:22.724Z,4.40
2018-07-10T18:35:51.967Z,3.77
2018-07-10T18:38:21.769Z,4.90
2018-07-10T18:40:51.128Z,2.52
2018-07-10T18:43:20.332Z,3.02
2018-07-10T18:45:49.534Z,5.00
2018-07-10T18:48:26.442Z,2.87
2018-07-10T18:50:56.608Z,3.60
2018-07-10T18:53:27.056Z,2.52
2018-07-10T18:55:56.248Z,2.33
2018-07-10T18:58:40.716Z,3.15
2018-07-10T19:01:54.093Z,1.90
2018-07-10T19:04:31.100Z,7.20
2018-07-10T19:07:00.330Z,1.80
2018-07-10T19:09:34.790Z,3.10
2018-07-10T19:12:07.811Z,3.20
2018-07-10T19:14:37.077Z,1.80
2018-07-10T19:17:11.349Z,1.60
2018-07-10T19:19:47.297Z,1.52
2018-07-10T19:22:17.960Z,2.70
2018-07-10T19:24:47.596Z,2.30
2018-07-10T19:27:29.816Z,1.77
2018-07-10T19:30:06.430Z,1.65
2018-07-10T19:32:36.588Z,4.72
2018-07-10T19:35:05.800Z,1.92
2018-07-10T19:37:37.336Z,3.80
2018-07-10T19:40:06.540Z,3.05
2018-07-10T19:42:38.923Z,3.55
2018-07-10T19:45:08.160Z,1.52
2018-07-10T19:47:37.460Z,2.30
2018-07-10T19:50:17.361Z,3.00
2018-07-10T19:52:53.729Z,1.75
2018-07-10T19:55:26.129Z,3.47
2018-07-10T19:58:36.022Z,1.80
2018-07-10T20:01:58.336Z,3.67
2018-07-10T20:04:53.008Z,4.50
2018-07-10T20:07:33.252Z,3.60
2018-07-10T20:10:19.209Z,3.85
2018-07-10T20:12:50.577Z,5.05
2018-07-10T20:15:38.845Z,4.75
2018-07-10T20:20:21.783Z,4.45
2018-07-10T20:23:32.488Z,3.70
2018-07-10T20:26:33.063Z,3.50
2018-07-10T20:29:24.171Z,3.15
2018-07-10T20:32:04.989Z,4.15
2018-07-10T20:34:47.188Z,2.95
2018-07-10T20:37:26.232Z,3.02
2018-07-10T20:39:55.380Z,5.12
2018-07-10T20:42:29.912Z,5.53
2018-07-10T20:45:04.664Z,4.35
2018-07-10T20:47:47.558Z,3.90
2018-07-10T20:50:38.052Z,6.05
2018-07-10T20:53:29.766Z,6.72
2018-07-10T20:57:05.017Z,4.97
2018-07-10T20:59:43.648Z,6.45
2018-07-10T21:03:01.721Z,4.58
2018-07-10T21:05:38.492Z,5.00
2018-07-10T21:09:14.984Z,6.28
2018-07-10T21:12:20.224Z,7.22
2018-07-10T21:15:01.964Z,5.70
2018-07-10T21:18:48.704Z,8.40
2018-07-10T21:22:03.368Z,6.72
2018-07-10T21:24:41.532Z,6.10
2018-07-10T21:27:12.915Z,6.20
2018-07-10T21:30:10.196Z,6.03
2018-07-10T21:32:48.369Z,7.85
2018-07-10T21:35:18.307Z,8.23
2018-07-10T21:40:03.628Z,6.97
2018-07-10T21:43:16.086Z,5.55
2018-07-10T21:47:01.118Z,7.75
2018-07-10T21:49:42.947Z,4.72
2018-07-10T21:52:13.065Z,5.75
2018-07-10T21:54:42.424Z,6.30
2018-07-10T21:57:15.077Z,5.25
2018-07-10T21:59:51.316Z,6.58
2018-07-10T22:02:20.798Z,8.20
2018-07-10T22:04:55.048Z,7.03
2018-07-10T22:07:27.048Z,6.70
2018-07-10T22:10:04.901Z,5.20
2018-07-10T22:12:40.184Z,5.42
2018-07-10T22:15:09.376Z,5.58
2018-07-10T22:17:39.720Z,6.17
2018-07-10T22:20:09.896Z,5.47
2018-07-10T22:22:39.085Z,6.20
2018-07-10T22:25:09.712Z,8.75
2018-07-10T22:27:41.984Z,6.58
2018-07-10T22:30:20.602Z,8.10
2018-07-10T22:32:54.200Z,6.37
2018-07-10T22:35:24.464Z,7.67
2018-07-10T22:37:54.282Z,6.08
2018-07-10T22:40:23.650Z,9.03
2018-07-10T22:42:52.908Z,7.72
2018-07-10T22:45:22.096Z,8.48
2018-07-10T22:47:52.373Z,6.33
2018-07-10T22:50:24.320Z,9.43
2018-07-10T22:52:58.634Z,9.63
2018-07-10T22:55:30.606Z,8.75
2018-07-10T22:58:04.204Z,9.03
2018-07-10T23:00:35.071Z,7.33
2018-07-10T23:03:20.700Z,8.23
2018-07-10T23:05:51.908Z,6.40
2018-07-10T23:08:35.334Z,6.85
2018-07-10T23:11:06.108Z,8.30
2018-07-10T23:13:38.633Z,7.75
2018-07-10T23:16:07.832Z,7.40
2018-07-10T23:18:37.057Z,7.05
2018-07-10T23:21:06.313Z,8.33
2018-07-10T23:23:37.140Z,7.50
2018-07-10T23:26:09.209Z,7.10
2018-07-10T23:28:39.484Z,6.83
2018-07-10T23:31:08.653Z,6.90
2018-07-10T23:33:38.776Z,8.73
2018-07-10T23:36:07.905Z,7.97
2018-07-10T23:38:48.547Z,8.50
2018-07-10T23:42:30.892Z,9.00
2018-07-10T23:45:19.680Z,8.95
2018-07-10T23:47:53.540Z,8.90
2018-07-10T23:50:27.341Z,7.55
2018-07-10T23:54:02.736Z,8.90
2018-07-10T23:56:32.473Z,8.43
2018-07-10T23:59:01.664Z,7.53
